createdAt,value
2019-01-20T00:00:10.795Z,100166.79
2019-01-20T00:02:42.269Z,100167.22
2019-01-20T00:05:14.642Z,100163.74
2019-01-20T00:07:45.946Z,100162.00
2019-01-20T00:10:17.320Z,100165.00
2019-01-20T00:12:48.669Z,100158.98
2019-01-20T00:15:20.286Z,100163.27
2019-01-20T00:17:51.589Z,100160.23
2019-01-20T00:20:22.939Z,100158.95
2019-01-20T00:22:54.318Z,100162.37
2019-01-20T00:25:25.655Z,100161.53
2019-01-20T00:27:56.982Z,100163.22
2019-01-20T00:30:28.274Z,100162.77
2019-01-20T00:32:59.610Z,100167.92
2019-01-20T00:35:30.923Z,100167.02
2019-01-20T00:38:02.230Z,100171.31
2019-01-20T00:40:33.582Z,100168.77
2019-01-20T00:43:05.079Z,100163.16
2019-01-20T00:45:36.387Z,100159.71
2019-01-20T00:48:07.702Z,100157.11
2019-01-20T00:50:39.038Z,100159.30
2019-01-20T00:53:10.321Z,100158.84
2019-01-20T00:55:41.640Z,100159.23
2019-01-20T00:58:12.927Z,100160.10
2019-01-20T01:00:44.248Z,100160.94
2019-01-20T01:03:15.563Z,100158.78
2019-01-20T01:05:46.864Z,100159.20
2019-01-20T01:08:18.220Z,100154.88
2019-01-20T01:10:49.592Z,100161.75
2019-01-20T01:13:22.336Z,100159.14
2019-01-20T01:15:53.633Z,100164.29
2019-01-20T01:18:24.953Z,100154.85
2019-01-20T01:20:56.230Z,100161.30
2019-01-20T01:23:27.500Z,100161.72
2019-01-20T01:25:58.803Z,100158.27
2019-01-20T01:28:30.081Z,100156.48
2019-01-20T01:31:01.452Z,100157.78
2019-01-20T01:33:32.737Z,100156.94
2019-01-20T01:36:04.109Z,100151.86
2019-01-20T01:38:35.404Z,100153.11
2019-01-20T01:41:06.744Z,100152.17
2019-01-20T01:43:38.135Z,100152.55
2019-01-20T01:46:09.402Z,100158.16
2019-01-20T01:48:40.771Z,100156.00
2019-01-20T01:51:12.113Z,100161.95
2019-01-20T01:53:43.401Z,100162.83
2019-01-20T01:56:14.781Z,100159.83
2019-01-20T01:58:46.089Z,100162.37
2019-01-20T02:01:17.385Z,100169.19
2019-01-20T02:03:48.681Z,100169.19
2019-01-20T02:06:20.024Z,100170.02
2019-01-20T02:08:51.349Z,100166.61
2019-01-20T02:11:22.657Z,100173.88
2019-01-20T02:13:53.982Z,100170.89
2019-01-20T02:16:25.272Z,100179.91
2019-01-20T02:18:56.573Z,100175.58
2019-01-20T02:21:27.921Z,100186.26
2019-01-20T02:23:59.207Z,100182.81
2019-01-20T02:26:30.499Z,100182.81
2019-01-20T02:29:01.895Z,100182.84
2019-01-20T02:31:33.172Z,100185.39
2019-01-20T02:34:04.530Z,100187.09
2019-01-20T02:36:35.826Z,100180.65
2019-01-20T02:39:09.175Z,100178.91
2019-01-20T02:41:40.482Z,100176.83
2019-01-20T02:44:11.790Z,100178.07
2019-01-20T02:46:43.037Z,100179.86
2019-01-20T02:49:14.344Z,100173.88
2019-01-20T02:51:45.658Z,100177.66
2019-01-20T02:54:16.915Z,100175.08
2019-01-20T02:56:48.226Z,100175.04
2019-01-20T02:59:19.531Z,100167.31
2019-01-20T03:01:50.892Z,100168.69
2019-01-20T03:04:22.233Z,100169.47
2019-01-20T03:06:53.538Z,100171.09
2019-01-20T03:09:24.900Z,100169.80
2019-01-20T03:12:03.488Z,100171.96
2019-01-20T03:14:29.192Z,100171.95
2019-01-20T03:17:00.499Z,100167.69
2019-01-20T03:19:31.874Z,100166.39
2019-01-20T03:22:03.203Z,100172.83
2019-01-20T03:24:34.489Z,100171.55
2019-01-20T03:27:06.044Z,100173.20
2019-01-20T03:29:37.321Z,100167.13
2019-01-20T03:32:08.597Z,100171.00
2019-01-20T03:34:39.902Z,100175.32
2019-01-20T03:37:11.250Z,100174.45
2019-01-20T03:39:42.496Z,100171.45
2019-01-20T03:42:13.767Z,100172.33
2019-01-20T03:44:45.120Z,100170.62
2019-01-20T03:47:16.382Z,100175.36
2019-01-20T03:49:47.690Z,100178.25
2019-01-20T03:52:18.990Z,100177.84
2019-01-20T03:54:50.272Z,100173.84
2019-01-20T03:57:21.567Z,100171.41
2019-01-20T03:59:52.853Z,100170.48
2019-01-20T04:02:24.604Z,100176.55
2019-01-20T04:04:55.927Z,100174.80
2019-01-20T04:07:27.207Z,100172.17
2019-01-20T04:09:58.489Z,100173.77
2019-01-20T04:12:29.796Z,100172.84
2019-01-20T04:15:01.075Z,100166.78
2019-01-20T04:17:32.357Z,100168.63
2019-01-20T04:20:03.714Z,100165.14
2019-01-20T04:22:34.988Z,100156.55
2019-01-20T04:25:08.983Z,100165.08
2019-01-20T04:27:40.257Z,100163.27
2019-01-20T04:30:14.519Z,100161.98
2019-01-20T04:32:45.810Z,100165.55
2019-01-20T04:35:17.101Z,100160.92
2019-01-20T04:37:48.420Z,100156.95
2019-01-20T04:40:22.470Z,100162.93
2019-01-20T04:42:53.757Z,100156.95
2019-01-20T04:45:25.155Z,100156.95
2019-01-20T04:47:56.412Z,100159.57
2019-01-20T04:50:27.689Z,100162.61
2019-01-20T04:52:58.988Z,100153.96
2019-01-20T04:55:30.274Z,100159.94
2019-01-20T04:58:01.674Z,100162.52
2019-01-20T05:00:32.977Z,100171.88
2019-01-20T05:03:04.435Z,100168.05
2019-01-20T05:05:35.736Z,100171.46
2019-01-20T05:08:07.024Z,100171.00
2019-01-20T05:10:38.324Z,100177.02
2019-01-20T05:13:09.607Z,100180.05
2019-01-20T05:15:40.902Z,100177.89
2019-01-20T05:18:12.198Z,100178.61
2019-01-20T05:20:43.483Z,100179.12
2019-01-20T05:23:14.832Z,100177.19
2019-01-20T05:25:46.111Z,100176.25
2019-01-20T05:28:17.405Z,100186.55
2019-01-20T05:30:48.697Z,100181.30
2019-01-20T05:33:20.026Z,100179.46
2019-01-20T05:35:51.286Z,100176.02
2019-01-20T05:38:22.592Z,100176.89
2019-01-20T05:40:53.855Z,100180.70
2019-01-20T05:43:25.162Z,100185.77
2019-01-20T05:45:56.502Z,100181.03
2019-01-20T05:48:27.804Z,100179.98
2019-01-20T05:50:59.103Z,100183.45
2019-01-20T05:53:30.414Z,100178.17
2019-01-20T05:56:02.019Z,100182.56
2019-01-20T05:58:33.442Z,100189.06
2019-01-20T06:01:04.770Z,100190.74
2019-01-20T06:03:36.014Z,100182.09
2019-01-20T06:06:07.348Z,100190.30
2019-01-20T06:08:38.684Z,100195.08
2019-01-20T06:11:09.938Z,100192.98
2019-01-20T06:13:41.305Z,100199.81
2019-01-20T06:16:12.554Z,100201.52
2019-01-20T06:18:43.844Z,100202.91
2019-01-20T06:21:15.178Z,100207.99
2019-01-20T06:23:46.481Z,100211.85
2019-01-20T06:26:17.795Z,100213.55
2019-01-20T06:28:49.092Z,100217.46
2019-01-20T06:31:20.371Z,100213.55
2019-01-20T06:33:51.716Z,100213.00
2019-01-20T06:36:23.035Z,100207.93
2019-01-20T06:38:54.342Z,100213.08
2019-01-20T06:41:25.669Z,100215.24
2019-01-20T06:43:56.962Z,100220.38
2019-01-20T06:46:28.274Z,100221.32
2019-01-20T06:49:02.438Z,100216.13
2019-01-20T06:51:33.695Z,100227.70
2019-01-20T06:54:05.017Z,100216.80
2019-01-20T06:56:36.297Z,100224.94
2019-01-20T06:59:07.636Z,100229.05
2019-01-20T07:01:38.902Z,100236.69
2019-01-20T07:04:10.215Z,100236.16
2019-01-20T07:06:41.526Z,100234.00
2019-01-20T07:09:12.828Z,100238.23
2019-01-20T07:11:44.116Z,100229.67
2019-01-20T07:14:15.406Z,100235.77
2019-01-20T07:16:46.684Z,100237.44
2019-01-20T07:19:17.958Z,100240.09
2019-01-20T07:21:49.248Z,100240.64
2019-01-20T07:24:20.576Z,100244.06
2019-01-20T07:26:51.875Z,100244.48
2019-01-20T07:29:24.696Z,100248.95
2019-01-20T07:31:56.114Z,100248.28
2019-01-20T07:34:27.511Z,100257.41
2019-01-20T07:36:58.847Z,100256.12
2019-01-20T07:39:30.181Z,100259.39
2019-01-20T07:42:01.475Z,100258.10
2019-01-20T07:44:32.776Z,100260.45
2019-01-20T07:47:04.092Z,100264.04
2019-01-20T07:49:35.413Z,100261.82
2019-01-20T07:52:06.687Z,100264.91
2019-01-20T07:54:37.984Z,100267.17
2019-01-20T07:57:09.277Z,100269.50
2019-01-20T07:59:40.541Z,100268.47
2019-01-20T08:02:11.833Z,100271.49
2019-01-20T08:04:43.098Z,100276.43
2019-01-20T08:07:14.367Z,100278.35
2019-01-20T08:09:45.658Z,100278.52
2019-01-20T08:12:23.368Z,100283.85
2019-01-20T08:14:49.923Z,100282.80
2019-01-20T08:17:21.177Z,100288.73
2019-01-20T08:19:52.484Z,100292.45
2019-01-20T08:22:23.760Z,100294.49
2019-01-20T08:24:55.033Z,100299.33
2019-01-20T08:27:26.321Z,100302.64
2019-01-20T08:29:57.563Z,100307.84
2019-01-20T08:32:28.899Z,100302.99
2019-01-20T08:35:00.264Z,100313.12
2019-01-20T08:37:31.524Z,100314.84
2019-01-20T08:40:02.831Z,100314.95
2019-01-20T08:42:34.123Z,100317.16
2019-01-20T08:45:08.383Z,100329.91
2019-01-20T08:47:46.345Z,100328.39
2019-01-20T08:50:18.448Z,100326.98
2019-01-20T08:52:49.759Z,100326.22
2019-01-20T08:55:21.063Z,100327.75
2019-01-20T08:57:52.355Z,100337.00
2019-01-20T09:00:23.742Z,100337.16
2019-01-20T09:02:55.049Z,100334.75
2019-01-20T09:05:26.299Z,100343.13
2019-01-20T09:07:57.560Z,100343.66
2019-01-20T09:10:29.487Z,100345.32
2019-01-20T09:13:02.895Z,100347.83
2019-01-20T09:15:34.146Z,100352.27
2019-01-20T09:18:05.799Z,100351.14
2019-01-20T09:20:37.168Z,100355.55
2019-01-20T09:23:08.416Z,100361.36
2019-01-20T09:25:39.705Z,100361.86
2019-01-20T09:28:10.996Z,100357.70
2019-01-20T09:30:42.290Z,100360.97
2019-01-20T09:33:13.617Z,100364.57
2019-01-20T09:35:44.900Z,100365.74
2019-01-20T09:38:16.211Z,100370.14
2019-01-20T09:40:47.487Z,100365.84
2019-01-20T09:43:18.741Z,100374.95
2019-01-20T09:45:51.140Z,100371.25
2019-01-20T09:48:22.419Z,100380.20
2019-01-20T09:50:53.722Z,100378.00
2019-01-20T09:53:25.125Z,100384.77
2019-01-20T09:55:56.403Z,100385.86
2019-01-20T09:58:27.641Z,100387.36
2019-01-20T10:00:58.941Z,100387.25
2019-01-20T10:03:30.306Z,100388.70
2019-01-20T10:06:01.605Z,100390.27
2019-01-20T10:08:32.957Z,100395.95
2019-01-20T10:11:04.353Z,100401.67
2019-01-20T10:13:35.661Z,100404.67
2019-01-20T10:16:06.928Z,100396.14
2019-01-20T10:18:38.223Z,100404.78
2019-01-20T10:21:09.500Z,100407.53
2019-01-20T10:23:40.775Z,100404.46
2019-01-20T10:26:12.083Z,100406.17
2019-01-20T10:28:43.362Z,100403.24
2019-01-20T10:31:14.648Z,100404.89
2019-01-20T10:33:45.902Z,100404.36
2019-01-20T10:36:17.227Z,100404.48
2019-01-20T10:38:48.526Z,100408.57
2019-01-20T10:41:19.839Z,100417.20
2019-01-20T10:43:51.129Z,100414.25
2019-01-20T10:46:22.447Z,100410.88
2019-01-20T10:48:53.757Z,100416.40
2019-01-20T10:51:25.046Z,100417.27
2019-01-20T10:53:56.376Z,100419.55
2019-01-20T10:56:27.692Z,100417.30
2019-01-20T10:59:01.081Z,100419.33
2019-01-20T11:01:32.429Z,100424.98
2019-01-20T11:04:03.869Z,100422.44
2019-01-20T11:06:35.314Z,100429.91
2019-01-20T11:09:08.153Z,100426.70
2019-01-20T11:11:39.441Z,100426.70
2019-01-20T11:14:10.739Z,100427.95
2019-01-20T11:16:42.033Z,100424.86
2019-01-20T11:19:13.322Z,100422.21
2019-01-20T11:21:44.646Z,100424.16
2019-01-20T11:24:15.957Z,100424.88
2019-01-20T11:26:47.288Z,100425.44
2019-01-20T11:29:18.600Z,100429.80
2019-01-20T11:31:49.894Z,100431.33
2019-01-20T11:34:21.140Z,100426.47
2019-01-20T11:36:52.495Z,100420.27
2019-01-20T11:39:23.766Z,100423.03
2019-01-20T11:41:55.084Z,100418.73
2019-01-20T11:44:26.433Z,100420.53
2019-01-20T11:46:57.741Z,100420.81
2019-01-20T11:49:29.039Z,100424.39
2019-01-20T11:52:00.360Z,100427.08
2019-01-20T11:54:31.671Z,100422.79
2019-01-20T11:57:02.952Z,100413.67
2019-01-20T11:59:34.245Z,100419.92
2019-01-20T12:02:06.158Z,100413.72
2019-01-20T12:04:37.653Z,100417.02
2019-01-20T12:07:08.966Z,100416.63
2019-01-20T12:09:40.278Z,100413.64
2019-01-20T12:12:11.568Z,100415.91
2019-01-20T12:14:42.918Z,100422.86
2019-01-20T12:17:14.307Z,100422.52
2019-01-20T12:19:45.668Z,100418.93
2019-01-20T12:22:16.970Z,100415.75
2019-01-20T12:24:48.354Z,100412.95
2019-01-20T12:27:19.731Z,100412.22
2019-01-20T12:29:51.973Z,100412.02
2019-01-20T12:32:23.695Z,100413.00
2019-01-20T12:34:56.567Z,100406.81
2019-01-20T12:37:27.954Z,100418.14
2019-01-20T12:39:59.323Z,100415.31
2019-01-20T12:42:32.711Z,100413.85
2019-01-20T12:45:04.369Z,100416.84
2019-01-20T12:47:35.696Z,100419.71
2019-01-20T12:50:09.649Z,100413.67
2019-01-20T12:52:40.946Z,100418.11
2019-01-20T12:55:13.277Z,100411.67
2019-01-20T12:57:44.732Z,100414.07
2019-01-20T13:00:18.273Z,100407.16
2019-01-20T13:02:49.640Z,100408.31
2019-01-20T13:05:21.034Z,100409.94
2019-01-20T13:07:52.325Z,100405.84
2019-01-20T13:10:23.665Z,100405.91
2019-01-20T13:12:54.875Z,100409.94
2019-01-20T13:15:26.152Z,100410.09
2019-01-20T13:17:57.383Z,100415.27
2019-01-20T13:20:28.763Z,100413.03
2019-01-20T13:23:01.019Z,100409.80
2019-01-20T13:25:32.893Z,100406.44
2019-01-20T13:28:04.325Z,100412.27
2019-01-20T13:30:35.677Z,100411.64
2019-01-20T13:33:07.042Z,100411.38
2019-01-20T13:35:38.344Z,100413.19
2019-01-20T13:38:16.651Z,100409.01
2019-01-20T13:41:29.219Z,100416.81
2019-01-20T13:44:00.770Z,100416.73
2019-01-20T13:46:32.058Z,100417.79
2019-01-20T13:49:03.330Z,100416.64
2019-01-20T13:51:34.679Z,100419.44
2019-01-20T13:54:06.114Z,100418.61
2019-01-20T13:56:37.410Z,100420.59
2019-01-20T13:59:08.654Z,100421.00
2019-01-20T14:01:39.901Z,100421.13
2019-01-20T14:04:11.208Z,100419.62
2019-01-20T14:06:42.502Z,100427.39
2019-01-20T14:09:13.788Z,100420.85
2019-01-20T14:11:45.080Z,100419.63
2019-01-20T14:14:16.358Z,100418.46
2019-01-20T14:16:47.630Z,100421.87
2019-01-20T14:19:21.813Z,100429.45
2019-01-20T14:21:51.965Z,100428.77
2019-01-20T14:24:23.314Z,100424.22
2019-01-20T14:26:54.645Z,100420.30
2019-01-20T14:29:25.976Z,100433.76
2019-01-20T14:31:57.315Z,100428.05
2019-01-20T14:34:28.626Z,100428.01
2019-01-20T14:36:59.908Z,100430.44
2019-01-20T14:39:31.198Z,100429.99
2019-01-20T14:42:02.513Z,100434.66
2019-01-20T14:44:33.798Z,100432.31
2019-01-20T14:47:05.081Z,100434.45
2019-01-20T14:49:36.394Z,100431.98
2019-01-20T14:52:07.695Z,100435.08
2019-01-20T14:54:39.001Z,100443.72
2019-01-20T14:57:10.273Z,100447.42
2019-01-20T14:59:41.608Z,100448.57
2019-01-20T15:02:12.888Z,100447.72
2019-01-20T15:04:44.189Z,100442.07
2019-01-20T15:07:15.479Z,100444.06
2019-01-20T15:09:46.771Z,100450.75
2019-01-20T15:12:18.068Z,100448.91
2019-01-20T15:14:49.490Z,100455.67
2019-01-20T15:17:20.783Z,100458.58
2019-01-20T15:19:52.073Z,100460.70
2019-01-20T15:22:23.370Z,100465.81
2019-01-20T15:24:54.673Z,100466.67
2019-01-20T15:27:25.974Z,100468.20
2019-01-20T15:29:57.306Z,100471.48
2019-01-20T15:32:28.597Z,100477.16
2019-01-20T15:34:59.884Z,100478.64
2019-01-20T15:37:31.206Z,100481.84
2019-01-20T15:40:02.494Z,100485.70
2019-01-20T15:42:33.779Z,100484.88
2019-01-20T15:45:05.698Z,100495.42
2019-01-20T15:47:36.973Z,100491.09
2019-01-20T15:50:12.685Z,100484.26
2019-01-20T15:52:44.005Z,100493.84
2019-01-20T15:55:15.489Z,100492.78
2019-01-20T15:57:46.934Z,100495.63
2019-01-20T16:00:21.489Z,100500.72
2019-01-20T16:02:52.781Z,100503.89
2019-01-20T16:05:25.502Z,100508.21
2019-01-20T16:07:56.808Z,100521.34
2019-01-20T16:10:28.129Z,100525.28
2019-01-20T16:12:59.398Z,100524.70
2019-01-20T16:15:39.939Z,100525.42
2019-01-20T16:18:14.378Z,100526.09
2019-01-20T16:20:44.180Z,100529.32
2019-01-20T16:23:15.481Z,100528.66
2019-01-20T16:25:46.812Z,100534.88
2019-01-20T16:28:18.161Z,100535.02
2019-01-20T16:30:49.424Z,100530.80
2019-01-20T16:33:24.919Z,100536.56
2019-01-20T16:35:53.763Z,100546.66
2019-01-20T16:38:25.055Z,100543.70
2019-01-20T16:40:56.360Z,100551.55
2019-01-20T16:43:27.692Z,100554.63
2019-01-20T16:45:58.984Z,100557.31
2019-01-20T16:48:30.277Z,100556.94
2019-01-20T16:51:01.595Z,100561.36
2019-01-20T16:53:32.832Z,100567.89
2019-01-20T16:56:04.136Z,100565.79
2019-01-20T16:58:35.484Z,100571.91
2019-01-20T17:01:06.823Z,100575.41
2019-01-20T17:03:38.161Z,100572.81
2019-01-20T17:06:09.431Z,100574.56
2019-01-20T17:08:40.727Z,100578.02
2019-01-20T17:11:12.078Z,100575.47
2019-01-20T17:13:43.643Z,100574.59
2019-01-20T17:16:15.001Z,100574.65
2019-01-20T17:18:46.413Z,100578.97
2019-01-20T17:21:17.716Z,100577.23
2019-01-20T17:23:49.052Z,100572.05
2019-01-20T17:26:20.389Z,100570.77
2019-01-20T17:28:51.702Z,100575.98
2019-01-20T17:31:23.059Z,100581.19
2019-01-20T17:33:54.331Z,100579.88
2019-01-20T17:36:25.679Z,100579.89
2019-01-20T17:38:57.041Z,100587.69
2019-01-20T17:41:28.328Z,100592.91
2019-01-20T17:43:59.703Z,100589.89
2019-01-20T17:46:31.034Z,100593.36
2019-01-20T17:49:02.395Z,100597.67
2019-01-20T17:51:41.799Z,100599.84
2019-01-20T17:54:13.070Z,100601.56
2019-01-20T17:56:44.411Z,100595.50
2019-01-20T17:59:15.726Z,100600.27
2019-01-20T18:01:47.025Z,100611.50
2019-01-20T18:04:18.350Z,100614.09
2019-01-20T18:06:49.720Z,100614.95
2019-01-20T18:09:21.034Z,100617.54
2019-01-20T18:11:52.331Z,100624.02
2019-01-20T18:14:23.654Z,100620.54
2019-01-20T18:16:54.954Z,100627.04
2019-01-20T18:19:26.308Z,100629.18
2019-01-20T18:21:57.595Z,100639.95
2019-01-20T18:24:28.918Z,100640.84
2019-01-20T18:27:00.278Z,100636.96
2019-01-20T18:29:31.562Z,100641.25
2019-01-20T18:32:02.898Z,100639.52
2019-01-20T18:34:34.187Z,100643.83
2019-01-20T18:37:05.645Z,100638.64
2019-01-20T18:39:36.882Z,100640.80
2019-01-20T18:42:08.276Z,100646.44
2019-01-20T18:44:39.575Z,100648.59
2019-01-20T18:47:10.835Z,100642.94
2019-01-20T18:49:42.224Z,100645.94
2019-01-20T18:52:13.547Z,100645.51
2019-01-20T18:54:44.875Z,100649.42
2019-01-20T18:57:16.215Z,100645.95
2019-01-20T18:59:47.510Z,100646.37
2019-01-20T19:02:18.821Z,100650.66
2019-01-20T19:04:50.187Z,100648.10
2019-01-20T19:07:21.475Z,100655.39
2019-01-20T19:09:52.844Z,100654.53
2019-01-20T19:12:24.163Z,100657.97
2019-01-20T19:14:55.459Z,100658.44
2019-01-20T19:17:26.811Z,100666.16
2019-01-20T19:19:58.115Z,100663.58
2019-01-20T19:22:29.461Z,100663.95
2019-01-20T19:25:00.787Z,100668.23
2019-01-20T19:27:35.412Z,100672.13
2019-01-20T19:30:14.458Z,100672.97
2019-01-20T19:32:45.762Z,100685.04
2019-01-20T19:35:17.166Z,100683.75
2019-01-20T19:37:48.506Z,100688.92
2019-01-20T19:40:19.854Z,100687.20
2019-01-20T19:42:51.182Z,100688.89
2019-01-20T19:45:22.707Z,100693.59
2019-01-20T19:47:56.953Z,100693.62
2019-01-20T19:50:28.254Z,100697.86
2019-01-20T19:52:59.637Z,100697.86
2019-01-20T19:55:35.108Z,100696.53
2019-01-20T19:58:06.728Z,100702.55
2019-01-20T20:00:38.224Z,100701.29
2019-01-20T20:03:10.673Z,100709.89
2019-01-20T20:05:42.007Z,100704.72
2019-01-20T20:08:13.392Z,100709.44
2019-01-20T20:10:44.804Z,100711.16
2019-01-20T20:13:16.113Z,100718.46
2019-01-20T20:15:50.242Z,100727.93
2019-01-20T20:18:24.557Z,100723.59
2019-01-20T20:20:55.905Z,100733.07
2019-01-20T20:23:27.314Z,100734.33
2019-01-20T20:25:58.775Z,100734.33
2019-01-20T20:28:30.155Z,100739.50
2019-01-20T20:31:01.556Z,100739.45
2019-01-20T20:33:32.946Z,100741.13
2019-01-20T20:36:04.390Z,100743.25
2019-01-20T20:38:35.687Z,100740.62
2019-01-20T20:41:07.059Z,100744.05
2019-01-20T20:43:38.480Z,100745.34
2019-01-20T20:46:09.864Z,100744.92
2019-01-20T20:48:41.209Z,100748.38
2019-01-20T20:51:12.602Z,100749.72
2019-01-20T20:53:43.993Z,100750.97
2019-01-20T20:56:15.401Z,100752.67
2019-01-20T20:58:46.737Z,100749.67
2019-01-20T21:01:19.684Z,100748.77
2019-01-20T21:03:51.090Z,100754.76
2019-01-20T21:06:22.467Z,100757.34
2019-01-20T21:08:53.775Z,100764.17
2019-01-20T21:11:25.111Z,100760.30
2019-01-20T21:13:56.463Z,100758.59
2019-01-20T21:16:27.823Z,100762.87
2019-01-20T21:19:02.415Z,100776.22
2019-01-20T21:21:33.717Z,100780.88
2019-01-20T21:24:05.169Z,100779.13
2019-01-20T21:26:36.475Z,100785.11
2019-01-20T21:29:07.802Z,100787.19
2019-01-20T21:31:39.033Z,100789.30
2019-01-20T21:34:10.350Z,100793.11
2019-01-20T21:36:41.589Z,100793.48
2019-01-20T21:39:12.912Z,100803.41
2019-01-20T21:41:44.213Z,100804.27
2019-01-20T21:44:15.513Z,100797.34
2019-01-20T21:46:46.814Z,100802.47
2019-01-20T21:49:18.099Z,100803.74
2019-01-20T21:51:49.395Z,100799.34
2019-01-20T21:54:20.729Z,100807.45
2019-01-20T21:56:55.054Z,100804.80
2019-01-20T21:59:26.345Z,100814.71
2019-01-20T22:01:57.674Z,100814.60
2019-01-20T22:04:28.969Z,100818.00
2019-01-20T22:07:00.257Z,100817.63
2019-01-20T22:09:31.578Z,100812.94
2019-01-20T22:12:02.939Z,100822.00
2019-01-20T22:14:34.278Z,100818.00
2019-01-20T22:17:08.685Z,100823.91
2019-01-20T22:19:39.982Z,100826.44
2019-01-20T22:22:11.299Z,100825.88
2019-01-20T22:24:42.618Z,100828.04
2019-01-20T22:27:13.882Z,100831.09
2019-01-20T22:29:45.181Z,100831.03
2019-01-20T22:32:16.466Z,100833.46
2019-01-20T22:34:47.767Z,100829.99
2019-01-20T22:37:19.072Z,100835.01
2019-01-20T22:39:50.349Z,100838.02
2019-01-20T22:42:21.675Z,100847.02
2019-01-20T22:44:53.037Z,100840.37
2019-01-20T22:47:24.338Z,100847.20
2019-01-20T22:49:55.678Z,100848.02
2019-01-20T22:52:27.018Z,100850.59
2019-01-20T22:54:58.340Z,100853.56
2019-01-20T22:57:29.617Z,100849.70
2019-01-20T23:00:00.932Z,100850.92
2019-01-20T23:02:32.289Z,100855.66
2019-01-20T23:05:03.585Z,100860.77
2019-01-20T23:07:34.933Z,100868.55
2019-01-20T23:10:07.260Z,100862.44
2019-01-20T23:12:38.569Z,100862.34
2019-01-20T23:15:10.587Z,100862.29
2019-01-20T23:17:41.905Z,100858.42
2019-01-20T23:20:15.375Z,100860.16
2019-01-20T23:22:46.676Z,100848.02
2019-01-20T23:25:18.031Z,100847.34
2019-01-20T23:27:49.431Z,100848.19
2019-01-20T23:30:20.766Z,100847.79
2019-01-20T23:32:55.215Z,100847.67
2019-01-20T23:35:26.511Z,100852.19
2019-01-20T23:37:57.806Z,100854.92
2019-01-20T23:40:29.159Z,100854.00
2019-01-20T23:43:00.528Z,100854.39
2019-01-20T23:45:31.853Z,100857.33
2019-01-20T23:48:03.162Z,100861.16
2019-01-20T23:50:34.595Z,100863.27
2019-01-20T23:53:06.109Z,100863.72
2019-01-20T23:55:37.739Z,100861.88
2019-01-20T23:58:09.140Z,100865.27
